sensor_id;sensor_type;location;lat;lon;timestamp;pressure;altitude;pressure_sealevel;temperature;humidity
64211;BME280;50528;48.514;14.394;2023-05-13T00:00:16;93869.45;;;9.56;83.79
64211;BME280;50528;48.514;14.394;2023-05-13T00:01:10;93870.77;;;9.53;83.64
64211;BME280;50528;48.514;14.394;2023-05-13T00:01:43;93876.36;;;9.54;83.78
64211;BME280;50528;48.514;14.394;2023-05-13T00:02:16;93875.52;;;9.55;84.03
64211;BME280;50528;48.514;14.394;2023-05-13T00:02:50;93873.73;;;9.55;83.99
64211;BME280;50528;48.514;14.394;2023-05-13T00:03:24;93872.92;;;9.53;84.00
64211;BME280;50528;48.514;14.394;2023-05-13T00:03:58;93874.30;;;9.53;84.10
64211;BME280;50528;48.514;14.394;2023-05-13T00:04:31;93874.61;;;9.53;84.04
64211;BME280;50528;48.514;14.394;2023-05-13T00:05:04;93872.56;;;9.53;84.14
64211;BME280;50528;48.514;14.394;2023-05-13T00:05:38;93872.27;;;9.58;84.25
64211;BME280;50528;48.514;14.394;2023-05-13T00:06:12;93873.10;;;9.57;84.05
64211;BME280;50528;48.514;14.394;2023-05-13T00:06:45;93873.38;;;9.56;84.00
64211;BME280;50528;48.514;14.394;2023-05-13T00:07:19;93871.73;;;9.57;84.12
64211;BME280;50528;48.514;14.394;2023-05-13T00:07:52;93870.94;;;9.60;83.88
64211;BME280;50528;48.514;14.394;2023-05-13T00:08:25;93871.83;;;9.64;83.65
64211;BME280;50528;48.514;14.394;2023-05-13T00:08:59;93871.70;;;9.63;83.66
64211;BME280;50528;48.514;14.394;2023-05-13T00:09:32;93870.73;;;9.61;83.60
64211;BME280;50528;48.514;14.394;2023-05-13T00:10:06;93872.92;;;9.60;83.57
64211;BME280;50528;48.514;14.394;2023-05-13T00:10:40;93870.60;;;9.59;83.55
64211;BME280;50528;48.514;14.394;2023-05-13T00:11:13;93869.59;;;9.58;83.70
64211;BME280;50528;48.514;14.394;2023-05-13T00:11:50;93870.36;;;9.61;83.49
64211;BME280;50528;48.514;14.394;2023-05-13T00:12:26;93872.83;;;9.60;83.68
64211;BME280;50528;48.514;14.394;2023-05-13T00:13:00;93872.70;;;9.59;83.70
64211;BME280;50528;48.514;14.394;2023-05-13T00:13:34;93872.09;;;9.60;83.62
64211;BME280;50528;48.514;14.394;2023-05-13T00:14:07;93868.02;;;9.55;83.76
64211;BME280;50528;48.514;14.394;2023-05-13T00:14:42;93868.33;;;9.58;83.77
64211;BME280;50528;48.514;14.394;2023-05-13T00:15:15;93869.42;;;9.54;83.77
64211;BME280;50528;48.514;14.394;2023-05-13T00:15:49;93868.69;;;9.53;83.91
64211;BME280;50528;48.514;14.394;2023-05-13T00:16:25;93869.28;;;9.56;83.95
64211;BME280;50528;48.514;14.394;2023-05-13T00:16:59;93871.63;;;9.53;83.91
64211;BME280;50528;48.514;14.394;2023-05-13T00:17:36;93866.89;;;9.60;83.37
64211;BME280;50528;48.514;14.394;2023-05-13T00:18:09;93867.49;;;9.58;83.12
64211;BME280;50528;48.514;14.394;2023-05-13T00:18:43;93865.91;;;9.55;83.44
64211;BME280;50528;48.514;14.394;2023-05-13T00:19:16;93869.63;;;9.53;83.56
64211;BME280;50528;48.514;14.394;2023-05-13T00:19:49;93866.20;;;9.53;83.76
64211;BME280;50528;48.514;14.394;2023-05-13T00:20:23;93868.68;;;9.53;83.57
64211;BME280;50528;48.514;14.394;2023-05-13T00:20:56;93870.28;;;9.55;83.64
64211;BME280;50528;48.514;14.394;2023-05-13T00:21:29;93868.02;;;9.55;83.49
64211;BME280;50528;48.514;14.394;2023-05-13T00:22:04;93870.71;;;9.50;83.48
64211;BME280;50528;48.514;14.394;2023-05-13T00:22:37;93864.70;;;9.47;83.85
64211;BME280;50528;48.514;14.394;2023-05-13T00:23:10;93867.58;;;9.50;83.86
64211;BME280;50528;48.514;14.394;2023-05-13T00:23:43;93863.53;;;9.50;83.99
64211;BME280;50528;48.514;14.394;2023-05-13T00:24:17;93868.05;;;9.50;83.94
64211;BME280;50528;48.514;14.394;2023-05-13T00:24:50;93863.46;;;9.52;83.85
64211;BME280;50528;48.514;14.394;2023-05-13T00:25:23;93863.87;;;9.49;83.73
64211;BME280;50528;48.514;14.394;2023-05-13T00:25:57;93862.00;;;9.50;84.01
64211;BME280;50528;48.514;14.394;2023-05-13T00:26:30;93860.55;;;9.47;84.10
64211;BME280;50528;48.514;14.394;2023-05-13T00:27:03;93865.19;;;9.52;84.05
64211;BME280;50528;48.514;14.394;2023-05-13T00:27:37;93861.91;;;9.53;83.92
64211;BME280;50528;48.514;14.394;2023-05-13T00:28:10;93864.70;;;9.51;84.06
64211;BME280;50528;48.514;14.394;2023-05-13T00:28:47;93862.52;;;9.50;83.97
64211;BME280;50528;48.514;14.394;2023-05-13T00:29:20;93861.11;;;9.50;84.06
64211;BME280;50528;48.514;14.394;2023-05-13T00:29:53;93863.48;;;9.53;84.19
64211;BME280;50528;48.514;14.394;2023-05-13T00:30:26;93863.25;;;9.52;84.09
64211;BME280;50528;48.514;14.394;2023-05-13T00:31:00;93859.73;;;9.49;84.21
64211;BME280;50528;48.514;14.394;2023-05-13T00:31:33;93860.04;;;9.51;84.09
64211;BME280;50528;48.514;14.394;2023-05-13T00:32:06;93860.44;;;9.46;84.08
64211;BME280;50528;48.514;14.394;2023-05-13T00:32:40;93860.38;;;9.45;84.44
64211;BME280;50528;48.514;14.394;2023-05-13T00:33:13;93857.33;;;9.48;84.61
64211;BME280;50528;48.514;14.394;2023-05-13T00:33:47;93859.23;;;9.50;84.55
64211;BME280;50528;48.514;14.394;2023-05-13T00:34:20;93856.10;;;9.54;84.28
64211;BME280;50528;48.514;14.394;2023-05-13T00:34:53;93857.13;;;9.57;84.01
64211;BME280;50528;48.514;14.394;2023-05-13T00:35:27;93854.41;;;9.54;83.95
64211;BME280;50528;48.514;14.394;2023-05-13T00:36:00;93857.09;;;9.54;84.08
64211;BME280;50528;48.514;14.394;2023-05-13T00:36:34;93852.29;;;9.56;84.05
64211;BME280;50528;48.514;14.394;2023-05-13T00:37:09;93853.86;;;9.56;83.93
64211;BME280;50528;48.514;14.394;2023-05-13T00:37:43;93855.80;;;9.56;84.02
64211;BME280;50528;48.514;14.394;2023-05-13T00:38:16;93854.50;;;9.55;83.91
64211;BME280;50528;48.514;14.394;2023-05-13T00:38:50;93856.25;;;9.51;84.13
64211;BME280;50528;48.514;14.394;2023-05-13T00:39:23;93859.33;;;9.50;84.14
64211;BME280;50528;48.514;14.394;2023-05-13T00:39:56;93856.09;;;9.53;84.14
64211;BME280;50528;48.514;14.394;2023-05-13T00:40:30;93860.36;;;9.55;84.16
64211;BME280;50528;48.514;14.394;2023-05-13T00:41:04;93857.13;;;9.56;83.83
64211;BME280;50528;48.514;14.394;2023-05-13T00:41:37;93860.57;;;9.55;83.87
64211;BME280;50528;48.514;14.394;2023-05-13T00:42:11;93859.95;;;9.52;83.98
64211;BME280;50528;48.514;14.394;2023-05-13T00:42:45;93858.11;;;9.49;84.10
64211;BME280;50528;48.514;14.394;2023-05-13T00:43:19;93857.68;;;9.49;84.22
64211;BME280;50528;48.514;14.394;2023-05-13T00:43:55;93857.58;;;9.48;84.32
64211;BME280;50528;48.514;14.394;2023-05-13T00:44:31;93856.98;;;9.47;84.05
64211;BME280;50528;48.514;14.394;2023-05-13T00:45:05;93854.34;;;9.42;84.30
64211;BME280;50528;48.514;14.394;2023-05-13T00:45:38;93855.70;;;9.42;84.49
64211;BME280;50528;48.514;14.394;2023-05-13T00:46:13;93855.14;;;9.40;84.62
64211;BME280;50528;48.514;14.394;2023-05-13T00:46:48;93855.38;;;9.40;84.59
64211;BME280;50528;48.514;14.394;2023-05-13T00:47:21;93857.20;;;9.38;84.65
64211;BME280;50528;48.514;14.394;2023-05-13T00:47:55;93853.59;;;9.37;84.79
64211;BME280;50528;48.514;14.394;2023-05-13T00:48:28;93858.11;;;9.39;84.98
64211;BME280;50528;48.514;14.394;2023-05-13T00:49:03;93852.92;;;9.42;85.12
64211;BME280;50528;48.514;14.394;2023-05-13T00:49:37;93853.14;;;9.46;84.87
64211;BME280;50528;48.514;14.394;2023-05-13T00:50:10;93853.55;;;9.49;84.70
64211;BME280;50528;48.514;14.394;2023-05-13T00:50:45;93851.84;;;9.50;84.49
64211;BME280;50528;48.514;14.394;2023-05-13T00:51:19;93854.11;;;9.48;84.57
64211;BME280;50528;48.514;14.394;2023-05-13T00:51:53;93853.41;;;9.47;84.79
64211;BME280;50528;48.514;14.394;2023-05-13T00:52:27;93855.71;;;9.50;84.45
64211;BME280;50528;48.514;14.394;2023-05-13T00:53:02;93852.98;;;9.51;84.30
64211;BME280;50528;48.514;14.394;2023-05-13T00:53:36;93854.43;;;9.48;84.41
64211;BME280;50528;48.514;14.394;2023-05-13T00:54:11;93853.03;;;9.45;84.61
64211;BME280;50528;48.514;14.394;2023-05-13T00:54:44;93851.80;;;9.47;84.65
64211;BME280;50528;48.514;14.394;2023-05-13T00:55:17;93851.91;;;9.45;84.64
64211;BME280;50528;48.514;14.394;2023-05-13T00:55:51;93851.50;;;9.48;84.79
64211;BME280;50528;48.514;14.394;2023-05-13T00:56:25;93853.73;;;9.47;84.68
64211;BME280;50528;48.514;14.394;2023-05-13T00:56:59;93854.33;;;9.45;84.52
64211;BME280;50528;48.514;14.394;2023-05-13T00:57:32;93851.91;;;9.47;84.40
64211;BME280;50528;48.514;14.394;2023-05-13T00:58:06;93852.90;;;9.47;84.45
64211;BME280;50528;48.514;14.394;2023-05-13T00:58:40;93850.27;;;9.44;84.39
64211;BME280;50528;48.514;14.394;2023-05-13T00:59:13;93850.93;;;9.43;84.41
64211;BME280;50528;48.514;14.394;2023-05-13T00:59:46;93849.67;;;9.46;84.59
64211;BME280;50528;48.514;14.394;2023-05-13T01:00:20;93850.17;;;9.44;84.64
64211;BME280;50528;48.514;14.394;2023-05-13T01:01:16;93850.34;;;9.47;84.71
64211;BME280;50528;48.514;14.394;2023-05-13T01:02:13;93849.83;;;9.41;84.61
64211;BME280;50528;48.514;14.394;2023-05-13T01:03:10;93851.66;;;9.42;84.69
64211;BME280;50528;48.514;14.394;2023-05-13T01:06:10;93850.22;;;9.30;84.55
64211;BME280;50528;48.514;14.394;2023-05-13T01:10:28;93852.27;;;9.24;85.10
64211;BME280;50528;48.514;14.394;2023-05-13T01:11:15;93850.77;;;9.27;84.80
64211;BME280;50528;48.514;14.394;2023-05-13T01:11:50;93846.82;;;9.22;84.96
64211;BME280;50528;48.514;14.394;2023-05-13T01:12:39;93849.83;;;9.19;84.94
64211;BME280;50528;48.514;14.394;2023-05-13T01:13:16;93847.96;;;9.21;85.28
64211;BME280;50528;48.514;14.394;2023-05-13T01:14:01;93847.86;;;9.23;85.37
64211;BME280;50528;48.514;14.394;2023-05-13T01:14:43;93851.25;;;9.23;85.44
64211;BME280;50528;48.514;14.394;2023-05-13T01:15:25;93849.63;;;9.23;85.39
64211;BME280;50528;48.514;14.394;2023-05-13T01:16:04;93850.73;;;9.22;85.48
64211;BME280;50528;48.514;14.394;2023-05-13T01:16:48;93846.20;;;9.22;85.58
64211;BME280;50528;48.514;14.394;2023-05-13T01:17:31;93852.05;;;9.23;85.54
64211;BME280;50528;48.514;14.394;2023-05-13T01:18:12;93850.20;;;9.22;85.57
64211;BME280;50528;48.514;14.394;2023-05-13T01:18:57;93852.21;;;9.25;85.77
64211;BME280;50528;48.514;14.394;2023-05-13T01:20:00;93853.41;;;9.26;85.73
64211;BME280;50528;48.514;14.394;2023-05-13T01:20:37;93856.71;;;9.26;85.57
64211;BME280;50528;48.514;14.394;2023-05-13T01:21:13;93857.90;;;9.26;85.64
64211;BME280;50528;48.514;14.394;2023-05-13T01:21:52;93856.42;;;9.27;85.79
64211;BME280;50528;48.514;14.394;2023-05-13T01:22:26;93858.98;;;9.30;85.65
64211;BME280;50528;48.514;14.394;2023-05-13T01:23:00;93855.05;;;9.31;85.65
64211;BME280;50528;48.514;14.394;2023-05-13T01:23:36;93855.39;;;9.32;85.41
64211;BME280;50528;48.514;14.394;2023-05-13T01:24:12;93857.17;;;9.33;85.48
64211;BME280;50528;48.514;14.394;2023-05-13T01:24:45;93857.04;;;9.33;85.55
64211;BME280;50528;48.514;14.394;2023-05-13T01:25:19;93860.73;;;9.32;85.59
64211;BME280;50528;48.514;14.394;2023-05-13T01:25:52;93860.09;;;9.30;85.61
64211;BME280;50528;48.514;14.394;2023-05-13T01:26:25;93863.66;;;9.31;85.54
64211;BME280;50528;48.514;14.394;2023-05-13T01:26:59;93858.63;;;9.32;85.65
64211;BME280;50528;48.514;14.394;2023-05-13T01:27:33;93858.38;;;9.33;85.68
64211;BME280;50528;48.514;14.394;2023-05-13T01:28:07;93861.30;;;9.34;85.63
64211;BME280;50528;48.514;14.394;2023-05-13T01:28:41;93858.20;;;9.38;85.52
64211;BME280;50528;48.514;14.394;2023-05-13T01:29:15;93860.40;;;9.36;85.37
64211;BME280;50528;48.514;14.394;2023-05-13T01:29:50;93857.59;;;9.34;85.53
64211;BME280;50528;48.514;14.394;2023-05-13T01:30:26;93859.06;;;9.35;85.53
64211;BME280;50528;48.514;14.394;2023-05-13T01:30:59;93856.02;;;9.34;85.54
64211;BME280;50528;48.514;14.394;2023-05-13T01:31:33;93859.42;;;9.35;85.53
64211;BME280;50528;48.514;14.394;2023-05-13T01:32:08;93855.48;;;9.34;85.64
64211;BME280;50528;48.514;14.394;2023-05-13T01:32:43;93857.50;;;9.35;85.55
64211;BME280;50528;48.514;14.394;2023-05-13T01:33:16;93855.77;;;9.36;85.72
64211;BME280;50528;48.514;14.394;2023-05-13T01:33:51;93855.34;;;9.36;85.79
64211;BME280;50528;48.514;14.394;2023-05-13T01:34:25;93858.27;;;9.39;85.83
64211;BME280;50528;48.514;14.394;2023-05-13T01:35:00;93853.35;;;9.42;85.77
64211;BME280;50528;48.514;14.394;2023-05-13T01:35:35;93855.21;;;9.45;85.52
64211;BME280;50528;48.514;14.394;2023-05-13T01:36:09;93853.13;;;9.45;85.48
64211;BME280;50528;48.514;14.394;2023-05-13T01:36:43;93855.74;;;9.45;85.36
64211;BME280;50528;48.514;14.394;2023-05-13T01:37:17;93854.84;;;9.44;85.36
64211;BME280;50528;48.514;14.394;2023-05-13T01:37:51;93854.56;;;9.43;85.22
64211;BME280;50528;48.514;14.394;2023-05-13T01:38:25;93850.86;;;9.44;85.34
64211;BME280;50528;48.514;14.394;2023-05-13T01:39:01;93851.94;;;9.46;85.32
64211;BME280;50528;48.514;14.394;2023-05-13T01:39:38;93853.05;;;9.44;85.23
64211;BME280;50528;48.514;14.394;2023-05-13T01:40:15;93850.45;;;9.42;85.24
64211;BME280;50528;48.514;14.394;2023-05-13T01:41:07;93849.23;;;9.37;85.04
64211;BME280;50528;48.514;14.394;2023-05-13T01:41:40;93849.67;;;9.39;85.37
64211;BME280;50528;48.514;14.394;2023-05-13T01:42:14;93849.73;;;9.38;85.28
64211;BME280;50528;48.514;14.394;2023-05-13T01:42:48;93853.47;;;9.37;85.30
64211;BME280;50528;48.514;14.394;2023-05-13T01:43:21;93849.32;;;9.37;85.40
64211;BME280;50528;48.514;14.394;2023-05-13T01:43:56;93854.25;;;9.37;85.47
64211;BME280;50528;48.514;14.394;2023-05-13T01:44:29;93852.50;;;9.39;85.39
64211;BME280;50528;48.514;14.394;2023-05-13T01:45:05;93848.79;;;9.39;85.33
64211;BME280;50528;48.514;14.394;2023-05-13T01:45:40;93852.61;;;9.42;85.23
64211;BME280;50528;48.514;14.394;2023-05-13T01:46:14;93852.71;;;9.42;85.20
64211;BME280;50528;48.514;14.394;2023-05-13T01:46:47;93850.08;;;9.42;84.92
64211;BME280;50528;48.514;14.394;2023-05-13T01:47:23;93849.19;;;9.41;84.78
64211;BME280;50528;48.514;14.394;2023-05-13T01:47:56;93853.73;;;9.40;85.03
64211;BME280;50528;48.514;14.394;2023-05-13T01:48:30;93853.01;;;9.38;85.13
64211;BME280;50528;48.514;14.394;2023-05-13T01:50:43;93856.17;;;9.29;85.13
64211;BME280;50528;48.514;14.394;2023-05-13T01:51:16;93859.40;;;9.25;85.07
64211;BME280;50528;48.514;14.394;2023-05-13T01:51:50;93861.78;;;9.25;85.19
64211;BME280;50528;48.514;14.394;2023-05-13T01:52:23;93855.77;;;9.27;85.31
64211;BME280;50528;48.514;14.394;2023-05-13T01:52:57;93855.76;;;9.28;85.30
64211;BME280;50528;48.514;14.394;2023-05-13T01:53:31;93852.34;;;9.28;85.24
64211;BME280;50528;48.514;14.394;2023-05-13T01:54:05;93854.40;;;9.27;85.31
64211;BME280;50528;48.514;14.394;2023-05-13T01:54:38;93851.53;;;9.27;85.38
64211;BME280;50528;48.514;14.394;2023-05-13T01:55:14;93852.10;;;9.29;85.56
64211;BME280;50528;48.514;14.394;2023-05-13T01:55:48;93848.45;;;9.28;85.44
64211;BME280;50528;48.514;14.394;2023-05-13T01:56:22;93848.18;;;9.27;85.58
64211;BME280;50528;48.514;14.394;2023-05-13T01:56:55;93847.52;;;9.28;85.62
64211;BME280;50528;48.514;14.394;2023-05-13T01:57:29;93847.21;;;9.29;85.69
64211;BME280;50528;48.514;14.394;2023-05-13T01:58:02;93850.70;;;9.30;85.81
64211;BME280;50528;48.514;14.394;2023-05-13T01:58:36;93851.64;;;9.33;85.89
64211;BME280;50528;48.514;14.394;2023-05-13T01:59:09;93851.42;;;9.33;85.86
64211;BME280;50528;48.514;14.394;2023-05-13T01:59:43;93854.71;;;9.35;85.91
64211;BME280;50528;48.514;14.394;2023-05-13T02:00:17;93850.73;;;9.36;85.85
64211;BME280;50528;48.514;14.394;2023-05-13T02:00:53;93851.99;;;9.36;85.79
64211;BME280;50528;48.514;14.394;2023-05-13T02:01:27;93854.04;;;9.37;85.80
64211;BME280;50528;48.514;14.394;2023-05-13T02:02:00;93855.20;;;9.37;85.79
64211;BME280;50528;48.514;14.394;2023-05-13T02:02:34;93852.44;;;9.38;85.88
64211;BME280;50528;48.514;14.394;2023-05-13T02:03:08;93853.80;;;9.38;85.73
64211;BME280;50528;48.514;14.394;2023-05-13T02:03:41;93852.43;;;9.38;85.71
64211;BME280;50528;48.514;14.394;2023-05-13T02:04:15;93853.44;;;9.38;85.79
64211;BME280;50528;48.514;14.394;2023-05-13T02:04:48;93853.67;;;9.39;85.68
64211;BME280;50528;48.514;14.394;2023-05-13T02:05:22;93853.10;;;9.39;85.62
64211;BME280;50528;48.514;14.394;2023-05-13T02:05:56;93855.95;;;9.38;85.63
64211;BME280;50528;48.514;14.394;2023-05-13T02:06:29;93854.05;;;9.38;85.75
64211;BME280;50528;48.514;14.394;2023-05-13T02:07:04;93850.20;;;9.39;85.74
64211;BME280;50528;48.514;14.394;2023-05-13T02:07:37;93851.20;;;9.42;85.79
64211;BME280;50528;48.514;14.394;2023-05-13T02:08:10;93848.98;;;9.41;85.50
64211;BME280;50528;48.514;14.394;2023-05-13T02:08:44;93850.22;;;9.40;85.60
64211;BME280;50528;48.514;14.394;2023-05-13T02:09:18;93850.58;;;9.40;85.61
64211;BME280;50528;48.514;14.394;2023-05-13T02:09:51;93854.63;;;9.40;85.66
64211;BME280;50528;48.514;14.394;2023-05-13T02:10:31;93852.98;;;9.39;85.64
64211;BME280;50528;48.514;14.394;2023-05-13T02:11:05;93852.20;;;9.39;85.68
64211;BME280;50528;48.514;14.394;2023-05-13T02:11:39;93855.80;;;9.41;85.70
64211;BME280;50528;48.514;14.394;2023-05-13T02:12:12;93854.80;;;9.42;85.74
64211;BME280;50528;48.514;14.394;2023-05-13T02:12:46;93854.14;;;9.44;85.81
64211;BME280;50528;48.514;14.394;2023-05-13T02:13:19;93858.85;;;9.45;85.75
64211;BME280;50528;48.514;14.394;2023-05-13T02:13:53;93855.67;;;9.47;85.79
64211;BME280;50528;48.514;14.394;2023-05-13T02:14:26;93857.00;;;9.47;85.74
64211;BME280;50528;48.514;14.394;2023-05-13T02:15:00;93855.84;;;9.48;85.78
64211;BME280;50528;48.514;14.394;2023-05-13T02:15:35;93857.98;;;9.50;85.76
64211;BME280;50528;48.514;14.394;2023-05-13T02:16:13;93861.25;;;9.51;85.76
64211;BME280;50528;48.514;14.394;2023-05-13T02:16:46;93858.06;;;9.52;85.63
64211;BME280;50528;48.514;14.394;2023-05-13T02:17:20;93860.93;;;9.51;85.67
64211;BME280;50528;48.514;14.394;2023-05-13T02:17:54;93862.02;;;9.53;85.70
64211;BME280;50528;48.514;14.394;2023-05-13T02:18:28;93861.02;;;9.54;85.63
64211;BME280;50528;48.514;14.394;2023-05-13T02:19:01;93860.70;;;9.53;85.52
64211;BME280;50528;48.514;14.394;2023-05-13T02:19:35;93859.71;;;9.53;85.48
64211;BME280;50528;48.514;14.394;2023-05-13T02:20:09;93857.34;;;9.53;85.50
64211;BME280;50528;48.514;14.394;2023-05-13T02:20:43;93853.85;;;9.52;85.46
64211;BME280;50528;48.514;14.394;2023-05-13T02:21:16;93857.25;;;9.54;85.40
64211;BME280;50528;48.514;14.394;2023-05-13T02:21:50;93856.89;;;9.54;85.51
64211;BME280;50528;48.514;14.394;2023-05-13T02:22:23;93857.52;;;9.54;85.34
64211;BME280;50528;48.514;14.394;2023-05-13T02:22:57;93856.84;;;9.54;85.35
64211;BME280;50528;48.514;14.394;2023-05-13T02:23:30;93857.11;;;9.54;85.26
64211;BME280;50528;48.514;14.394;2023-05-13T02:24:03;93858.26;;;9.54;85.23
64211;BME280;50528;48.514;14.394;2023-05-13T02:24:37;93858.14;;;9.53;85.06
64211;BME280;50528;48.514;14.394;2023-05-13T02:25:13;93859.13;;;9.53;85.08
64211;BME280;50528;48.514;14.394;2023-05-13T02:25:46;93856.17;;;9.53;85.18
64211;BME280;50528;48.514;14.394;2023-05-13T02:26:19;93860.77;;;9.54;84.96
64211;BME280;50528;48.514;14.394;2023-05-13T02:26:52;93863.09;;;9.52;84.96
64211;BME280;50528;48.514;14.394;2023-05-13T02:27:26;93858.77;;;9.51;85.09
64211;BME280;50528;48.514;14.394;2023-05-13T02:28:00;93861.91;;;9.50;85.12
64211;BME280;50528;48.514;14.394;2023-05-13T02:28:33;93859.59;;;9.52;85.28
64211;BME280;50528;48.514;14.394;2023-05-13T02:29:07;93864.71;;;9.52;85.09
64211;BME280;50528;48.514;14.394;2023-05-13T02:29:40;93862.89;;;9.52;85.07
64211;BME280;50528;48.514;14.394;2023-05-13T02:30:14;93862.98;;;9.51;85.12
64211;BME280;50528;48.514;14.394;2023-05-13T02:30:49;93860.27;;;9.52;85.07
64211;BME280;50528;48.514;14.394;2023-05-13T02:31:22;93863.77;;;9.49;85.02
64211;BME280;50528;48.514;14.394;2023-05-13T02:31:55;93863.25;;;9.49;85.19
64211;BME280;50528;48.514;14.394;2023-05-13T02:32:29;93861.94;;;9.49;85.30
64211;BME280;50528;48.514;14.394;2023-05-13T02:33:02;93860.45;;;9.54;84.69
64211;BME280;50528;48.514;14.394;2023-05-13T02:33:35;93862.81;;;9.57;84.08
64211;BME280;50528;48.514;14.394;2023-05-13T02:34:09;93862.06;;;9.50;84.30
64211;BME280;50528;48.514;14.394;2023-05-13T02:34:42;93859.60;;;9.46;84.45
64211;BME280;50528;48.514;14.394;2023-05-13T02:35:15;93864.88;;;9.44;84.62
64211;BME280;50528;48.514;14.394;2023-05-13T02:35:49;93860.83;;;9.45;84.66
64211;BME280;50528;48.514;14.394;2023-05-13T02:36:22;93864.71;;;9.44;84.68
64211;BME280;50528;48.514;14.394;2023-05-13T02:36:56;93865.19;;;9.45;84.71
64211;BME280;50528;48.514;14.394;2023-05-13T02:37:29;93862.73;;;9.45;84.78
64211;BME280;50528;48.514;14.394;2023-05-13T02:38:08;93863.23;;;9.47;84.84
64211;BME280;50528;48.514;14.394;2023-05-13T02:38:41;93866.05;;;9.46;84.84
64211;BME280;50528;48.514;14.394;2023-05-13T02:39:15;93864.95;;;9.47;84.98
64211;BME280;50528;48.514;14.394;2023-05-13T02:39:48;93860.95;;;9.48;84.91
64211;BME280;50528;48.514;14.394;2023-05-13T02:40:23;93861.88;;;9.49;85.03
64211;BME280;50528;48.514;14.394;2023-05-13T02:40:56;93861.71;;;9.48;84.91
64211;BME280;50528;48.514;14.394;2023-05-13T02:41:31;93864.23;;;9.49;85.00
64211;BME280;50528;48.514;14.394;2023-05-13T02:42:04;93860.48;;;9.50;84.95
64211;BME280;50528;48.514;14.394;2023-05-13T02:42:38;93863.90;;;9.50;84.93
64211;BME280;50528;48.514;14.394;2023-05-13T02:43:11;93862.76;;;9.50;85.08
64211;BME280;50528;48.514;14.394;2023-05-13T02:43:50;93862.41;;;9.52;85.06
64211;BME280;50528;48.514;14.394;2023-05-13T02:44:23;93863.75;;;9.53;85.12
64211;BME280;50528;48.514;14.394;2023-05-13T02:44:56;93862.56;;;9.54;85.06
64211;BME280;50528;48.514;14.394;2023-05-13T02:45:31;93862.55;;;9.55;85.04
64211;BME280;50528;48.514;14.394;2023-05-13T02:46:05;93860.00;;;9.56;85.09
64211;BME280;50528;48.514;14.394;2023-05-13T02:46:38;93860.71;;;9.57;85.09
64211;BME280;50528;48.514;14.394;2023-05-13T02:47:12;93862.55;;;9.57;85.13
64211;BME280;50528;48.514;14.394;2023-05-13T02:47:45;93859.99;;;9.58;85.12
64211;BME280;50528;48.514;14.394;2023-05-13T02:48:19;93858.37;;;9.59;85.11
64211;BME280;50528;48.514;14.394;2023-05-13T02:48:52;93860.66;;;9.60;85.23
64211;BME280;50528;48.514;14.394;2023-05-13T02:49:26;93857.96;;;9.60;85.21
64211;BME280;50528;48.514;14.394;2023-05-13T02:49:59;93859.39;;;9.61;85.22
64211;BME280;50528;48.514;14.394;2023-05-13T02:50:33;93855.89;;;9.62;85.31
64211;BME280;50528;48.514;14.394;2023-05-13T02:51:06;93858.17;;;9.63;85.26
64211;BME280;50528;48.514;14.394;2023-05-13T02:51:41;93858.92;;;9.64;85.22
64211;BME280;50528;48.514;14.394;2023-05-13T02:52:15;93858.55;;;9.64;85.15
64211;BME280;50528;48.514;14.394;2023-05-13T02:52:48;93856.52;;;9.65;85.27
64211;BME280;50528;48.514;14.394;2023-05-13T02:53:22;93858.33;;;9.65;85.20
64211;BME280;50528;48.514;14.394;2023-05-13T02:54:02;93860.95;;;9.66;85.11
64211;BME280;50528;48.514;14.394;2023-05-13T02:54:36;93860.42;;;9.65;85.21
64211;BME280;50528;48.514;14.394;2023-05-13T02:55:09;93862.11;;;9.66;85.31
64211;BME280;50528;48.514;14.394;2023-05-13T02:55:44;93859.23;;;9.66;85.21
64211;BME280;50528;48.514;14.394;2023-05-13T02:56:17;93860.55;;;9.68;85.26
64211;BME280;50528;48.514;14.394;2023-05-13T02:56:51;93858.51;;;9.69;85.26
64211;BME280;50528;48.514;14.394;2023-05-13T02:57:24;93862.25;;;9.69;85.21
64211;BME280;50528;48.514;14.394;2023-05-13T02:57:57;93857.20;;;9.69;85.14
64211;BME280;50528;48.514;14.394;2023-05-13T02:58:31;93856.44;;;9.70;85.14
64211;BME280;50528;48.514;14.394;2023-05-13T02:59:04;93859.27;;;9.70;85.26
64211;BME280;50528;48.514;14.394;2023-05-13T02:59:38;93858.61;;;9.71;85.18
64211;BME280;50528;48.514;14.394;2023-05-13T03:00:11;93856.83;;;9.71;85.26
64211;BME280;50528;48.514;14.394;2023-05-13T03:00:45;93854.11;;;9.72;85.22
64211;BME280;50528;48.514;14.394;2023-05-13T03:01:18;93852.17;;;9.72;85.05
64211;BME280;50528;48.514;14.394;2023-05-13T03:01:52;93855.16;;;9.73;85.15
64211;BME280;50528;48.514;14.394;2023-05-13T03:02:25;93854.64;;;9.73;85.23
64211;BME280;50528;48.514;14.394;2023-05-13T03:03:00;93853.56;;;9.74;85.16
64211;BME280;50528;48.514;14.394;2023-05-13T03:03:34;93851.60;;;9.73;85.15
64211;BME280;50528;48.514;14.394;2023-05-13T03:04:07;93849.09;;;9.74;85.03
64211;BME280;50528;48.514;14.394;2023-05-13T03:04:40;93853.61;;;9.74;85.00
64211;BME280;50528;48.514;14.394;2023-05-13T03:05:14;93851.22;;;9.72;84.89
64211;BME280;50528;48.514;14.394;2023-05-13T03:05:47;93850.27;;;9.72;84.82
64211;BME280;50528;48.514;14.394;2023-05-13T03:06:21;93854.84;;;9.72;84.88
64211;BME280;50528;48.514;14.394;2023-05-13T03:06:54;93852.58;;;9.72;84.87
64211;BME280;50528;48.514;14.394;2023-05-13T03:07:27;93853.42;;;9.72;84.94
64211;BME280;50528;48.514;14.394;2023-05-13T03:08:01;93851.85;;;9.72;84.98
64211;BME280;50528;48.514;14.394;2023-05-13T03:08:34;93854.59;;;9.72;84.98
64211;BME280;50528;48.514;14.394;2023-05-13T03:09:08;93850.07;;;9.73;84.98
64211;BME280;50528;48.514;14.394;2023-05-13T03:09:41;93851.08;;;9.73;85.03
64211;BME280;50528;48.514;14.394;2023-05-13T03:10:14;93850.30;;;9.74;85.01
64211;BME280;50528;48.514;14.394;2023-05-13T03:10:48;93852.37;;;9.75;84.93
64211;BME280;50528;48.514;14.394;2023-05-13T03:11:21;93847.94;;;9.73;84.89